Time;durP1;ratioP1;P1;durP2;ratioP2;P2;SDS_P1;SDS_P2;PMS_P1;PMS_P2;Temp;Humidity;BMP_temperature;BMP_pressure;BME280_temperature;BME280_humidity;BME280_pressure;Samples;Min_cycle;Max_cycle;Signal;HPM_P1;HPM_P2
2023/01/01 00:01:07;;;;;;;26.20;3.45;;;12.90;99.90;;;;;;4993634;28;20114;-78
2023/01/01 00:03:34;;;;;;;20.88;3.90;;;13.10;99.90;;;;;;4993597;28;20082;-79
2023/01/01 00:06:09;;;;;;;35.40;7.25;;;13.10;99.90;;;;;;5009137;28;20078;-78
2023/01/01 00:08:35;;;;;;;34.97;12.10;;;13.10;99.90;;;;;;4987259;28;20033;-78
2023/01/01 00:11:02;;;;;;;17.65;3.10;;;13.00;99.90;;;;;;4993727;28;20031;-79
2023/01/01 00:13:28;;;;;;;9.98;2.38;;;13.10;99.90;;;;;;4992860;28;20026;-79
2023/01/01 00:15:53;;;;;;;25.17;3.70;;;13.00;99.90;;;;;;4992653;28;20501;-80
2023/01/01 00:18:19;;;;;;;32.95;4.55;;;13.00;99.90;;;;;;4991879;28;20057;-80
2023/01/01 00:20:45;;;;;;;29.02;4.10;;;13.00;99.90;;;;;;4992379;28;20497;-78
2023/01/01 00:23:11;;;;;;;22.90;3.55;;;13.00;99.90;;;;;;4991133;28;20037;-75
2023/01/01 00:25:39;;;;;;;23.10;4.10;;;13.00;99.90;;;;;;4992519;28;20042;-76
2023/01/01 00:28:06;;;;;;;18.83;3.08;;;12.90;99.90;;;;;;4990332;28;20022;-76
2023/01/01 00:30:31;;;;;;;16.38;3.15;;;12.90;99.90;;;;;;5001540;28;20113;-76
2023/01/01 00:32:57;;;;;;;30.63;5.88;;;12.90;99.90;;;;;;4991487;28;20110;-75
2023/01/01 00:35:24;;;;;;;29.20;3.70;;;12.80;99.90;;;;;;4991483;28;20504;-75
2023/01/01 00:37:50;;;;;;;31.58;3.45;;;12.70;99.90;;;;;;4992581;28;20077;-74
2023/01/01 00:40:17;;;;;;;21.50;2.53;;;12.70;99.90;;;;;;4986655;28;20450;-75
2023/01/01 00:42:43;;;;;;;27.50;2.97;;;12.60;99.90;;;;;;4986271;28;20030;-75
2023/01/01 00:45:09;;;;;;;22.38;2.67;;;12.60;99.90;;;;;;4990857;28;20089;-76
2023/01/01 00:47:35;;;;;;;27.73;4.30;;;12.60;99.90;;;;;;4992282;28;20022;-75
2023/01/01 00:50:00;;;;;;;35.53;3.50;;;12.60;99.90;;;;;;4992235;28;20367;-75
2023/01/01 00:52:26;;;;;;;31.40;4.55;;;12.50;99.90;;;;;;4988579;28;20023;-75
2023/01/01 00:54:52;;;;;;;22.20;3.75;;;12.50;99.90;;;;;;4992107;28;20029;-75
2023/01/01 00:57:18;;;;;;;21.90;3.88;;;12.50;99.90;;;;;;4989586;28;20494;-74
2023/01/01 00:59:43;;;;;;;31.38;4.97;;;12.50;99.90;;;;;;4991950;28;20019;-74
2023/01/01 01:02:09;;;;;;;32.05;3.67;;;12.40;99.90;;;;;;4989777;28;20482;-74
2023/01/01 01:04:35;;;;;;;25.73;5.05;;;12.40;99.90;;;;;;4992096;28;20030;-75
2023/01/01 01:07:01;;;;;;;22.75;2.80;;;12.40;99.90;;;;;;4990761;28;20103;-75
2023/01/01 01:09:27;;;;;;;36.30;3.40;;;12.30;99.90;;;;;;4989208;28;20462;-74
2023/01/01 01:11:52;;;;;;;18.70;3.38;;;12.30;99.90;;;;;;4990053;28;20030;-74
2023/01/01 01:14:18;;;;;;;29.08;4.10;;;12.20;99.90;;;;;;4989192;28;20026;-73
2023/01/01 01:16:44;;;;;;;25.08;3.17;;;12.10;99.90;;;;;;4990449;28;20525;-74
2023/01/01 01:19:14;;;;;;;26.35;5.07;;;12.10;99.90;;;;;;4989180;28;20129;-74
2023/01/01 01:21:40;;;;;;;26.55;3.67;;;12.00;99.90;;;;;;4991961;28;20034;-74
2023/01/01 01:24:06;;;;;;;34.35;5.05;;;12.00;99.90;;;;;;4989333;28;20039;-73
2023/01/01 01:26:34;;;;;;;31.00;3.05;;;11.90;99.90;;;;;;4991223;28;20042;-74
2023/01/01 01:28:59;;;;;;;19.45;3.33;;;11.90;99.90;;;;;;4990530;28;20113;-75
2023/01/01 01:31:30;;;;;;;29.02;5.53;;;11.90;99.90;;;;;;4990395;28;20470;-73
2023/01/01 01:33:57;;;;;;;22.55;3.28;;;11.80;99.90;;;;;;4991475;28;20026;-74
2023/01/01 01:36:24;;;;;;;31.02;4.40;;;11.70;99.90;;;;;;5004033;28;20105;-75
2023/01/01 01:38:50;;;;;;;27.17;2.78;;;11.70;99.90;;;;;;4990593;28;20034;-74
2023/01/01 01:41:19;;;;;;;20.92;2.65;;;11.70;99.90;;;;;;5003834;28;20034;-74
2023/01/01 01:43:56;;;;;;;19.83;2.70;;;11.70;99.90;;;;;;4990945;28;20032;-74
2023/01/01 01:46:27;;;;;;;16.63;3.22;;;11.60;99.90;;;;;;4986716;28;20512;-74
2023/01/01 01:48:55;;;;;;;20.23;2.70;;;11.50;99.90;;;;;;4990716;28;20042;-73
2023/01/01 01:51:27;;;;;;;21.83;2.20;;;11.40;99.90;;;;;;4987308;28;20286;-73
2023/01/01 01:53:56;;;;;;;16.98;3.55;;;11.60;99.90;;;;;;4991100;28;20022;-72
2023/01/01 01:56:33;;;;;;;17.40;2.28;;;11.60;99.90;;;;;;4988654;28;20035;-74
2023/01/01 01:58:59;;;;;;;26.10;3.10;;;11.60;99.90;;;;;;4990576;28;20050;-74
2023/01/01 02:01:25;;;;;;;27.10;2.83;;;11.50;99.90;;;;;;4989369;28;20759;-73
2023/01/01 02:03:59;;;;;;;21.85;3.95;;;11.50;99.90;;;;;;4990687;28;20532;-73
2023/01/01 02:06:31;;;;;;;25.55;2.80;;;11.50;99.90;;;;;;4989010;28;20376;-73
2023/01/01 02:09:01;;;;;;;20.90;2.50;;;11.50;99.90;;;;;;4990539;28;20076;-73
2023/01/01 02:11:27;;;;;;;19.35;2.90;;;11.40;99.90;;;;;;4987056;28;20030;-76
2023/01/01 02:13:54;;;;;;;26.60;3.88;;;11.40;99.90;;;;;;4990855;28;20029;-74
2023/01/01 02:16:36;;;;;;;20.02;4.00;;;11.40;99.90;;;;;;4988953;28;20046;-73
2023/01/01 02:19:43;;;;;;;26.52;4.18;;;11.40;99.90;;;;;;4990684;28;20068;-73
2023/01/01 02:22:25;;;;;;;24.67;3.60;;;11.50;99.90;;;;;;4983328;28;20125;-73
2023/01/01 02:24:51;;;;;;;29.17;4.15;;;11.50;99.90;;;;;;4984959;28;20041;-73
2023/01/01 02:27:25;;;;;;;26.30;3.60;;;11.40;99.90;;;;;;4988204;28;20039;-75
2023/01/01 02:30:02;;;;;;;17.33;2.53;;;11.50;99.90;;;;;;4990326;28;20089;-74
2023/01/01 02:32:40;;;;;;;21.73;3.63;;;11.60;99.90;;;;;;4983534;28;20548;-73
2023/01/01 02:38:01;;;;;;;;;;;11.60;99.90;;;;;;4991011;28;20037;-73
2023/01/01 02:40:28;;;;;;;29.73;4.25;;;11.60;99.90;;;;;;5001332;28;19971;-73
2023/01/01 02:42:55;;;;;;;24.23;4.45;;;11.60;99.90;;;;;;4983706;28;20106;-74
2023/01/01 02:45:21;;;;;;;33.17;5.30;;;11.60;99.90;;;;;;4988175;28;20122;-72
2023/01/01 02:47:47;;;;;;;22.27;5.22;;;11.60;99.90;;;;;;4990399;28;20031;-73
2023/01/01 02:50:24;;;;;;;24.30;5.18;;;11.60;99.90;;;;;;4988799;28;20091;-72
2023/01/01 02:53:06;;;;;;;23.70;3.90;;;11.60;99.90;;;;;;4990589;28;20456;-74
2023/01/01 02:55:47;;;;;;;22.33;3.35;;;11.60;99.90;;;;;;4981802;28;20398;-74
2023/01/01 03:01:39;;;;;;;20.67;2.92;;;11.60;99.90;;;;;;4986238;28;20406;-74
2023/01/01 03:04:51;;;;;;;26.65;4.43;;;11.60;99.90;;;;;;4978843;28;20398;-74
2023/01/01 03:07:35;;;;;;;28.25;3.38;;;11.60;99.90;;;;;;4986032;28;20070;-74
2023/01/01 03:10:06;;;;;;;27.88;3.53;;;11.60;99.90;;;;;;4990199;28;20018;-73
2023/01/01 03:12:55;;;;;;;24.80;3.07;;;11.60;99.90;;;;;;4989678;28;20426;-74
2023/01/01 03:15:38;;;;;;;33.28;3.45;;;11.60;99.90;;;;;;4988670;28;20486;-74
2023/01/01 03:18:17;;;;;;;27.35;3.20;;;11.60;99.90;;;;;;4986711;28;20042;-73
2023/01/01 03:20:45;;;;;;;25.17;3.47;;;11.50;99.90;;;;;;4987021;28;20501;-73
2023/01/01 03:23:17;;;;;;;28.52;4.18;;;11.40;99.90;;;;;;4988656;28;20042;-72
2023/01/01 03:25:47;;;;;;;23.05;3.88;;;11.40;99.90;;;;;;4993939;28;20073;-74
2023/01/01 03:28:25;;;;;;;28.20;4.03;;;11.30;99.90;;;;;;4989614;28;20030;-73
2023/01/01 03:30:52;;;;;;;30.67;3.60;;;11.30;99.90;;;;;;4985128;28;20053;-72
2023/01/01 03:33:24;;;;;;;22.33;4.03;;;11.30;99.90;;;;;;4990716;28;20042;-73
2023/01/01 03:35:56;;;;;;;;;;;11.30;99.90;;;;;;4987893;28;20065;-72
2023/01/01 03:38:34;;;;;;;23.70;2.95;;;11.30;99.90;;;;;;4992071;28;19910;-74
2023/01/01 03:41:21;;;;;;;25.65;3.50;;;11.30;99.90;;;;;;4992967;28;20041;-74
2023/01/01 03:43:55;;;;;;;25.52;3.17;;;11.20;99.90;;;;;;4993441;28;20117;-74
2023/01/01 03:46:24;;;;;;;26.50;3.70;;;11.20;99.90;;;;;;4988636;28;20049;-73
2023/01/01 03:48:59;;;;;;;25.95;2.67;;;11.10;99.90;;;;;;4993505;28;20071;-73
2023/01/01 03:51:46;;;;;;;26.67;4.38;;;11.10;99.90;;;;;;4991997;28;20045;-73
2023/01/01 03:54:38;;;;;;;21.30;4.05;;;11.20;99.90;;;;;;5001056;28;20062;-73
2023/01/01 03:57:32;;;;;;;21.80;3.40;;;11.20;99.90;;;;;;4986054;28;20050;-73
2023/01/01 04:00:00;;;;;;;20.90;3.30;;;11.20;99.90;;;;;;4988036;28;20034;-73
2023/01/01 04:02:58;;;;;;;36.70;4.18;;;11.20;99.90;;;;;;4991524;28;20494;-73
2023/01/01 04:05:24;;;;;;;23.63;3.47;;;11.30;99.90;;;;;;4982106;28;20163;-73
2023/01/01 04:07:51;;;;;;;21.30;2.85;;;11.30;99.90;;;;;;4992451;28;20466;-73
2023/01/01 04:10:17;;;;;;;20.45;2.25;;;11.30;99.90;;;;;;4990767;28;20027;-73
2023/01/01 04:12:45;;;;;;;23.23;2.75;;;11.30;99.90;;;;;;4988144;28;20466;-73
2023/01/01 04:15:12;;;;;;;25.95;3.00;;;11.40;99.90;;;;;;4990677;28;20050;-73
2023/01/01 04:17:37;;;;;;;17.70;2.60;;;11.30;99.90;;;;;;4992566;28;20117;-73
2023/01/01 04:20:04;;;;;;;16.58;3.33;;;11.40;99.90;;;;;;4991890;28;20064;-73
2023/01/01 04:22:30;;;;;;;19.08;3.22;;;11.40;99.90;;;;;;4991089;28;20034;-73
2023/01/01 04:24:55;;;;;;;22.00;4.00;;;11.40;99.90;;;;;;4992199;28;20445;-73
2023/01/01 04:27:21;;;;;;;24.30;3.60;;;11.40;99.90;;;;;;4988716;28;20038;-73
2023/01/01 04:29:47;;;;;;;23.15;4.50;;;11.40;99.90;;;;;;4987076;28;20034;-73
2023/01/01 04:32:13;;;;;;;23.58;4.43;;;11.40;99.90;;;;;;4974937;28;20062;-73
2023/01/01 04:34:39;;;;;;;18.00;2.63;;;11.30;99.90;;;;;;4982692;28;20541;-74
2023/01/01 04:37:04;;;;;;;21.67;3.47;;;11.30;99.90;;;;;;4992507;28;20089;-73
2023/01/01 04:39:30;;;;;;;15.45;2.40;;;11.40;99.90;;;;;;4990278;28;20049;-73
2023/01/01 04:41:56;;;;;;;23.25;3.38;;;11.30;99.90;;;;;;4991699;28;20096;-73
2023/01/01 04:44:21;;;;;;;20.05;2.80;;;11.30;99.90;;;;;;4990084;28;20537;-73
2023/01/01 04:46:47;;;;;;;20.38;2.90;;;11.40;99.90;;;;;;4988944;28;20121;-73
2023/01/01 04:49:13;;;;;;;23.80;3.65;;;11.40;99.90;;;;;;4991803;28;20030;-73
2023/01/01 04:51:38;;;;;;;20.00;3.25;;;11.40;99.90;;;;;;4988921;28;20030;-73
2023/01/01 04:54:04;;;;;;;29.15;2.80;;;11.40;99.90;;;;;;4991718;28;20057;-73
2023/01/01 04:56:30;;;;;;;23.30;3.22;;;11.30;99.90;;;;;;4989221;28;20414;-73
2023/01/01 04:58:57;;;;;;;17.40;2.47;;;11.30;99.90;;;;;;4984101;28;20390;-73
2023/01/01 05:01:25;;;;;;;16.75;3.00;;;11.20;99.90;;;;;;4990003;28;20034;-73
2023/01/01 05:03:52;;;;;;;13.65;2.10;;;11.20;99.90;;;;;;4991329;28;20058;-73
2023/01/01 05:06:18;;;;;;;16.58;3.00;;;11.20;99.90;;;;;;4984336;28;20038;-73
2023/01/01 05:08:47;;;;;;;17.10;3.20;;;11.20;99.90;;;;;;4991527;28;20037;-73
2023/01/01 05:11:15;;;;;;;22.90;3.70;;;11.20;99.90;;;;;;4985285;28;20437;-74
2023/01/01 05:13:43;;;;;;;18.45;2.95;;;11.20;99.90;;;;;;4991118;28;20022;-73
2023/01/01 05:16:13;;;;;;;14.15;2.05;;;11.10;99.90;;;;;;4989690;28;20026;-72
2023/01/01 05:18:39;;;;;;;19.80;3.42;;;11.20;99.90;;;;;;4989398;28;20438;-72
2023/01/01 05:21:11;;;;;;;14.50;2.33;;;11.20;99.90;;;;;;4990927;28;20080;-72
2023/01/01 05:23:37;;;;;;;21.33;2.05;;;11.20;99.90;;;;;;4991680;28;20057;-73
2023/01/01 05:26:14;;;;;;;16.67;3.10;;;11.20;99.90;;;;;;4989255;28;20070;-72
2023/01/01 05:28:41;;;;;;;15.10;1.73;;;11.10;99.90;;;;;;4987117;28;20045;-72
2023/01/01 05:31:13;;;;;;;19.10;4.60;;;11.10;99.90;;;;;;4988979;28;20058;-72
2023/01/01 05:33:38;;;;;;;18.85;4.22;;;11.10;99.90;;;;;;4989928;28;20028;-72
2023/01/01 05:36:06;;;;;;;17.02;1.92;;;11.10;99.90;;;;;;4991299;28;20038;-73
2023/01/01 05:38:32;;;;;;;22.52;3.55;;;11.10;99.90;;;;;;4988630;28;20390;-72
2023/01/01 05:40:58;;;;;;;23.20;3.10;;;11.10;99.90;;;;;;4989972;28;20521;-71
2023/01/01 05:43:24;;;;;;;15.50;2.63;;;11.20;99.90;;;;;;4987929;28;20517;-72
2023/01/01 05:46:02;;;;;;;17.38;2.90;;;11.20;99.90;;;;;;4990556;28;20070;-73
2023/01/01 05:48:28;;;;;;;14.23;2.00;;;11.20;99.90;;;;;;4988033;28;20030;-72
2023/01/01 05:50:53;;;;;;;19.20;2.10;;;11.30;99.90;;;;;;4990935;28;20023;-72
2023/01/01 05:53:19;;;;;;;23.75;2.80;;;11.30;99.90;;;;;;4988864;28;20081;-72
2023/01/01 05:55:52;;;;;;;15.70;2.78;;;11.30;99.90;;;;;;4989783;28;20489;-71
2023/01/01 05:58:17;;;;;;;18.50;2.30;;;11.30;99.90;;;;;;4988829;28;20034;-72
2023/01/01 06:00:43;;;;;;;19.40;4.55;;;11.40;99.90;;;;;;4990173;28;20040;-73
2023/01/01 06:03:09;;;;;;;23.10;3.28;;;11.40;99.90;;;;;;4988651;28;20108;-72
2023/01/01 06:05:35;;;;;;;15.35;2.65;;;11.50;99.90;;;;;;4989275;28;20030;-71
2023/01/01 06:08:01;;;;;;;22.15;2.30;;;11.50;99.90;;;;;;4990699;28;20022;-72
2023/01/01 06:10:27;;;;;;;19.05;3.08;;;11.50;99.90;;;;;;4984935;28;20043;-72
2023/01/01 06:12:57;;;;;;;26.17;2.85;;;11.50;99.90;;;;;;4989140;28;20050;-72
2023/01/01 06:15:23;;;;;;;16.35;1.95;;;11.50;99.90;;;;;;4988532;28;20117;-72
2023/01/01 06:17:49;;;;;;;15.70;3.03;;;11.50;99.90;;;;;;4989793;28;20026;-72
2023/01/01 06:20:15;;;;;;;14.95;2.30;;;11.50;99.90;;;;;;4988901;28;20041;-72
2023/01/01 06:22:41;;;;;;;19.05;2.13;;;11.50;99.90;;;;;;4990558;28;20034;-72
2023/01/01 06:25:08;;;;;;;13.95;1.92;;;11.50;99.90;;;;;;4987982;28;20026;-72
2023/01/01 06:27:36;;;;;;;14.30;1.98;;;11.40;99.90;;;;;;4989588;28;20478;-73
2023/01/01 06:30:06;;;;;;;8.40;1.70;;;11.30;99.90;;;;;;4978475;28;20032;-72
2023/01/01 06:32:32;;;;;;;19.35;2.85;;;11.20;99.90;;;;;;4984006;28;20474;-72
2023/01/01 06:34:58;;;;;;;10.80;1.80;;;11.00;99.90;;;;;;4991337;28;20034;-73
2023/01/01 06:37:24;;;;;;;18.90;3.45;;;10.90;99.90;;;;;;4990313;28;20062;-72
2023/01/01 06:39:50;;;;;;;14.52;2.08;;;10.90;99.90;;;;;;4991306;28;20097;-72
2023/01/01 06:42:16;;;;;;;18.58;1.98;;;10.90;99.90;;;;;;4986593;28;20470;-72
2023/01/01 06:44:41;;;;;;;12.77;2.08;;;11.00;99.90;;;;;;4989422;28;20403;-73
2023/01/01 06:47:07;;;;;;;14.48;2.92;;;11.00;99.90;;;;;;4986140;28;20034;-72
2023/01/01 06:49:33;;;;;;;21.38;2.45;;;11.00;99.90;;;;;;4986191;28;20034;-72
2023/01/01 06:51:59;;;;;;;12.13;1.63;;;11.00;99.90;;;;;;4987174;28;20033;-73
2023/01/01 06:54:24;;;;;;;19.15;2.17;;;11.00;99.90;;;;;;4983774;28;20062;-71
2023/01/01 06:56:50;;;;;;;18.48;4.40;;;11.00;99.90;;;;;;4987622;28;20054;-71
2023/01/01 06:59:16;;;;;;;24.90;2.58;;;11.00;99.90;;;;;;4991639;28;20031;-72
2023/01/01 07:01:42;;;;;;;18.80;2.55;;;11.00;99.90;;;;;;4994279;28;20030;-72
2023/01/01 07:04:13;;;;;;;24.30;3.55;;;11.00;99.90;;;;;;4988631;28;20113;-72
2023/01/01 07:06:39;;;;;;;16.77;2.17;;;11.10;99.90;;;;;;4994108;28;20034;-72
2023/01/01 07:09:06;;;;;;;19.88;3.10;;;11.00;99.90;;;;;;4994189;28;20121;-72
2023/01/01 07:11:32;;;;;;;19.50;2.78;;;11.00;99.90;;;;;;4993820;28;20081;-73
2023/01/01 07:13:58;;;;;;;16.60;3.25;;;11.00;99.90;;;;;;4990322;28;20026;-73
2023/01/01 07:16:24;;;;;;;13.48;3.15;;;11.00;99.90;;;;;;4989720;28;20105;-73
2023/01/01 07:18:51;;;;;;;19.05;2.90;;;11.00;99.90;;;;;;4991235;28;20138;-73
2023/01/01 07:21:44;;;;;;;25.23;3.55;;;11.00;99.90;;;;;;4989373;28;20482;-72
2023/01/01 07:24:12;;;;;;;19.50;2.47;;;10.90;99.90;;;;;;4985876;28;20109;-73
2023/01/01 07:26:38;;;;;;;18.45;3.10;;;10.90;99.90;;;;;;4989334;28;20043;-72
2023/01/01 07:29:04;;;;;;;21.67;3.65;;;10.90;99.90;;;;;;4992444;28;20031;-71
2023/01/01 07:31:30;;;;;;;18.60;3.55;;;10.80;99.90;;;;;;4990824;28;20034;-72
2023/01/01 07:33:56;;;;;;;20.02;2.10;;;10.80;99.90;;;;;;4990309;28;20434;-72
2023/01/01 07:36:22;;;;;;;15.35;2.80;;;10.70;99.90;;;;;;4989260;28;20475;-72
2023/01/01 07:38:47;;;;;;;23.92;3.25;;;10.60;99.90;;;;;;4992624;28;20081;-71
2023/01/01 07:41:13;;;;;;;22.00;3.22;;;10.60;99.90;;;;;;4990182;28;20072;-71
2023/01/01 07:43:39;;;;;;;16.85;3.35;;;10.60;99.90;;;;;;4989862;28;20553;-72
2023/01/01 07:46:05;;;;;;;16.80;2.65;;;10.50;99.90;;;;;;4991831;28;20085;-72
2023/01/01 07:48:30;;;;;;;28.88;5.03;;;10.50;99.90;;;;;;4991596;28;20030;-74
2023/01/01 07:50:56;;;;;;;25.88;3.72;;;10.50;99.90;;;;;;4989314;28;20033;-73
2023/01/01 07:53:22;;;;;;;20.58;3.72;;;10.40;99.90;;;;;;4989801;28;20042;-72
2023/01/01 07:55:47;;;;;;;27.98;4.03;;;10.40;99.90;;;;;;4991967;28;20107;-71
2023/01/01 07:58:13;;;;;;;23.10;4.25;;;10.30;99.90;;;;;;4987841;28;20033;-71
2023/01/01 08:00:39;;;;;;;29.30;5.03;;;10.30;99.90;;;;;;4988402;28;20022;-71
2023/01/01 08:03:06;;;;;;;23.45;3.58;;;10.40;99.90;;;;;;4990858;28;20490;-72
2023/01/01 08:05:34;;;;;;;24.08;2.88;;;10.30;99.90;;;;;;4987965;28;20394;-71
2023/01/01 08:08:00;;;;;;;28.00;4.05;;;10.30;99.90;;;;;;4992940;28;20471;-73
2023/01/01 08:10:26;;;;;;;29.10;3.92;;;10.30;99.90;;;;;;4990087;28;20038;-73
2023/01/01 08:12:57;;;;;;;26.42;4.00;;;10.30;99.90;;;;;;4989787;28;20133;-73
2023/01/01 08:15:23;;;;;;;35.92;5.38;;;10.40;99.90;;;;;;4988791;28;20029;-72
2023/01/01 08:17:48;;;;;;;33.70;5.13;;;10.40;99.90;;;;;;4990670;28;20047;-72
2023/01/01 08:20:14;;;;;;;21.63;3.75;;;10.30;99.90;;;;;;4990716;28;20399;-71
2023/01/01 08:22:40;;;;;;;28.20;2.72;;;10.40;99.90;;;;;;4988247;28;20025;-72
2023/01/01 08:25:06;;;;;;;25.25;3.55;;;10.40;99.90;;;;;;4992947;28;20085;-71
2023/01/01 08:27:32;;;;;;;27.15;4.25;;;10.40;99.90;;;;;;4982577;28;20045;-73
2023/01/01 08:29:58;;;;;;;24.75;4.03;;;10.40;99.90;;;;;;4991449;28;20474;-72
2023/01/01 08:32:23;;;;;;;23.33;3.33;;;10.40;99.90;;;;;;4990269;28;20112;-71
2023/01/01 08:34:49;;;;;;;24.17;3.00;;;10.40;99.90;;;;;;4992125;28;20030;-72
2023/01/01 08:37:15;;;;;;;19.13;3.88;;;10.50;99.90;;;;;;4967125;28;20096;-72
2023/01/01 08:39:41;;;;;;;24.42;4.40;;;10.50;99.90;;;;;;4992503;28;20031;-72
2023/01/01 08:42:06;;;;;;;29.25;4.20;;;10.50;99.90;;;;;;4988062;28;20084;-72
2023/01/01 08:44:32;;;;;;;31.80;4.35;;;10.60;99.90;;;;;;4986166;28;20171;-72
2023/01/01 08:46:58;;;;;;;25.13;3.65;;;10.60;99.90;;;;;;4985767;28;20036;-72
2023/01/01 08:49:24;;;;;;;25.55;5.05;;;10.70;99.90;;;;;;4990940;28;20030;-73
2023/01/01 08:51:50;;;;;;;23.58;3.67;;;10.70;99.90;;;;;;4992046;28;20117;-72
2023/01/01 08:54:15;;;;;;;22.27;3.72;;;10.70;99.90;;;;;;4983141;28;20037;-72
2023/01/01 08:56:41;;;;;;;23.75;4.18;;;10.60;99.90;;;;;;4991223;28;20387;-71
2023/01/01 08:59:07;;;;;;;22.77;3.38;;;10.60;99.90;;;;;;4989526;28;20033;-72
2023/01/01 09:01:33;;;;;;;27.02;4.40;;;10.60;99.90;;;;;;4991323;28;20025;-72
2023/01/01 09:03:58;;;;;;;25.75;4.65;;;10.70;99.90;;;;;;4991450;28;20109;-71
2023/01/01 09:06:24;;;;;;;17.80;3.47;;;10.60;99.90;;;;;;4989999;28;20050;-71
2023/01/01 09:08:50;;;;;;;27.20;4.38;;;10.70;99.90;;;;;;4989097;28;20030;-69
2023/01/01 09:11:27;;;;;;;29.33;5.85;;;10.70;99.90;;;;;;4988921;28;20479;-74
2023/01/01 09:13:53;;;;;;;30.00;4.50;;;10.70;99.90;;;;;;4988646;28;20030;-68
2023/01/01 09:16:20;;;;;;;22.95;4.97;;;10.70;99.90;;;;;;4989451;28;20308;-70
2023/01/01 09:18:46;;;;;;;25.15;4.10;;;10.70;99.90;;;;;;4989430;28;20137;-71
2023/01/01 09:21:11;;;;;;;36.75;6.03;;;10.80;99.90;;;;;;4989620;28;20109;-68
2023/01/01 09:23:37;;;;;;;26.00;3.97;;;10.80;99.90;;;;;;4989548;28;20456;-68
2023/01/01 09:26:08;;;;;;;29.90;4.43;;;10.90;99.90;;;;;;4990131;28;20043;-68
2023/01/01 09:28:35;;;;;;;32.17;4.23;;;10.90;99.90;;;;;;4991228;28;20027;-73
2023/01/01 09:31:03;;;;;;;28.00;4.00;;;10.90;99.90;;;;;;4991073;28;20031;-71
2023/01/01 09:33:29;;;;;;;27.52;4.80;;;10.90;99.90;;;;;;4984524;28;20046;-71
2023/01/01 09:36:11;;;;;;;25.60;4.65;;;11.00;99.90;;;;;;4990954;28;20490;-71
2023/01/01 09:38:37;;;;;;;30.27;5.63;;;11.10;99.90;;;;;;4987277;28;20433;-72
2023/01/01 09:41:18;;;;;;;34.22;5.00;;;11.10;99.90;;;;;;4985435;28;20026;-73
2023/01/01 09:44:02;;;;;;;27.77;2.83;;;11.10;99.90;;;;;;4990998;28;20077;-72
2023/01/01 09:46:28;;;;;;;26.80;3.17;;;11.20;99.90;;;;;;4989789;28;20050;-73
2023/01/01 09:49:00;;;;;;;24.02;4.18;;;11.20;99.90;;;;;;4991765;28;20026;-74
2023/01/01 09:51:29;;;;;;;31.52;4.30;;;11.20;99.90;;;;;;4983072;28;20129;-73
2023/01/01 09:54:04;;;;;;;18.55;2.92;;;11.20;99.90;;;;;;4990402;28;20025;-73
2023/01/01 09:56:31;;;;;;;29.30;4.22;;;11.20;99.90;;;;;;4981766;28;20058;-73
2023/01/01 09:59:00;;;;;;;24.75;5.30;;;11.20;99.90;;;;;;4988133;28;20061;-73
2023/01/01 10:01:42;;;;;;;30.23;2.97;;;11.20;99.90;;;;;;4988515;28;20061;-76
2023/01/01 10:04:19;;;;;;;35.95;5.03;;;11.20;99.90;;;;;;4987568;28;20022;-70
2023/01/01 10:07:00;;;;;;;22.80;4.03;;;11.20;99.90;;;;;;4991056;28;20096;-75
2023/01/01 10:09:42;;;;;;;27.70;3.75;;;11.20;99.90;;;;;;4987542;28;20064;-72
2023/01/01 10:12:42;;;;;;;19.85;3.58;;;11.20;99.90;;;;;;4986292;28;20101;-73
2023/01/01 10:15:17;;;;;;;24.77;3.95;;;11.20;99.90;;;;;;4984387;28;20033;-71
2023/01/01 10:17:48;;;;;;;21.27;4.40;;;11.20;99.90;;;;;;4990739;28;20046;-73
2023/01/01 10:20:25;;;;;;;27.95;3.20;;;11.20;99.90;;;;;;4988736;28;20030;-69
2023/01/01 10:22:56;;;;;;;21.58;4.00;;;11.20;99.90;;;;;;4989394;28;20018;-72
2023/01/01 10:25:25;;;;;;;18.58;3.05;;;11.20;99.90;;;;;;4983653;28;20042;-73
2023/01/01 10:28:11;;;;;;;27.83;3.17;;;11.20;99.90;;;;;;4983651;28;20026;-73
2023/01/01 10:30:40;;;;;;;18.85;3.75;;;11.20;99.90;;;;;;4987025;28;20027;-73
2023/01/01 10:33:11;;;;;;;19.75;2.83;;;11.20;99.90;;;;;;4986549;28;20057;-74
2023/01/01 10:35:48;;;;;;;26.50;4.22;;;11.30;99.90;;;;;;4982335;28;20065;-73
2023/01/01 10:38:23;;;;;;;24.05;4.60;;;11.30;99.90;;;;;;4982867;28;20026;-72
2023/01/01 10:40:56;;;;;;;20.13;4.53;;;11.30;99.90;;;;;;4988685;28;20133;-73
2023/01/01 10:43:22;;;;;;;15.70;3.25;;;11.40;99.90;;;;;;4987416;28;20027;-73
2023/01/01 10:45:53;;;;;;;26.48;4.85;;;11.40;99.90;;;;;;4989974;28;20116;-74
2023/01/01 10:48:24;;;;;;;29.92;3.67;;;11.30;99.90;;;;;;4986218;28;20022;-74
2023/01/01 10:50:55;;;;;;;20.00;4.15;;;11.30;99.90;;;;;;4990917;28;20365;-74
2023/01/01 10:53:26;;;;;;;19.45;3.90;;;11.40;99.90;;;;;;4980505;28;20030;-74
2023/01/01 10:56:10;;;;;;;20.80;3.53;;;11.40;99.90;;;;;;4990532;28;20022;-74
2023/01/01 10:59:02;;;;;;;28.48;3.63;;;11.40;99.90;;;;;;4990648;28;20027;-73
2023/01/01 11:01:32;;;;;;;16.20;2.90;;;11.40;99.90;;;;;;4981431;28;20034;-75
2023/01/01 11:04:12;;;;;;;24.20;3.15;;;11.40;99.90;;;;;;4981673;28;20030;-72
2023/01/01 11:06:41;;;;;;;29.52;5.30;;;11.40;99.90;;;;;;4990207;28;20043;-74
2023/01/01 11:09:26;;;;;;;26.88;3.67;;;11.40;99.90;;;;;;4989933;28;20034;-75
2023/01/01 11:12:01;;;;;;;23.85;4.20;;;11.40;99.90;;;;;;4983666;28;20434;-72
2023/01/01 11:14:38;;;;;;;25.48;3.25;;;11.50;99.90;;;;;;4986650;28;20057;-73
2023/01/01 11:17:05;;;;;;;23.23;2.85;;;11.40;99.90;;;;;;4991495;28;20040;-70
2023/01/01 11:19:36;;;;;;;20.73;3.47;;;11.40;99.90;;;;;;4982319;28;20046;-70
2023/01/01 11:22:03;;;;;;;23.42;3.30;;;11.40;99.90;;;;;;4988994;28;20121;-72
2023/01/01 11:24:31;;;;;;;18.92;3.58;;;11.50;99.90;;;;;;4988169;28;20042;-69
2023/01/01 11:27:19;;;;;;;24.33;4.50;;;11.50;99.90;;;;;;4986017;28;20445;-71
2023/01/01 11:29:45;;;;;;;23.80;4.38;;;11.50;99.90;;;;;;4988432;28;20042;-71
2023/01/01 11:32:28;;;;;;;20.15;3.22;;;11.50;99.90;;;;;;4988887;28;20042;-75
2023/01/01 11:35:00;;;;;;;22.17;3.92;;;11.50;99.90;;;;;;4988302;28;20022;-79
2023/01/01 11:37:34;;;;;;;;;;;11.50;99.90;;;;;;4981798;28;20462;-74
2023/01/01 11:40:02;;;;;;;26.90;3.60;;;11.50;99.90;;;;;;4989603;28;19932;-76
2023/01/01 11:42:34;;;;;;;23.13;3.90;;;11.50;99.90;;;;;;4980795;28;20031;-70
2023/01/01 11:45:05;;;;;;;18.63;2.97;;;11.50;99.90;;;;;;4986926;28;20038;-72
2023/01/01 11:47:35;;;;;;;20.65;3.83;;;11.50;99.90;;;;;;4990527;28;20034;-76
2023/01/01 11:50:13;;;;;;;23.48;3.55;;;11.50;99.90;;;;;;4994689;28;20050;-76
2023/01/01 11:52:44;;;;;;;25.23;3.47;;;11.50;99.90;;;;;;4989489;28;20042;-78
2023/01/01 11:55:41;;;;;;;22.13;2.73;;;11.50;99.90;;;;;;4988034;28;20093;-74
2023/01/01 11:58:21;;;;;;;19.50;3.97;;;11.60;99.90;;;;;;4992289;28;20073;-73
2023/01/01 12:00:54;;;;;;;22.73;4.65;;;11.60;99.90;;;;;;4986356;28;20033;-73
2023/01/01 12:03:29;;;;;;;24.40;4.28;;;11.60;99.90;;;;;;4986667;28;20398;-74
2023/01/01 12:06:29;;;;;;;22.92;3.83;;;11.60;99.90;;;;;;4992312;28;20041;-72
2023/01/01 12:09:22;;;;;;;27.80;4.68;;;11.70;99.90;;;;;;4937981;29;20127;-72
2023/01/01 12:11:47;;;;;;;;;;;11.80;99.90;;;;;;4938042;28;20027;-73
2023/01/01 12:14:47;;;;;;;30.90;3.83;;;11.80;99.90;;;;;;4946245;28;19938;-72
2023/01/01 12:17:33;;;;;;;29.75;3.85;;;11.90;99.90;;;;;;4943188;29;20110;-72
2023/01/01 12:20:05;;;;;;;25.10;4.20;;;11.90;99.90;;;;;;4948017;29;20491;-73
2023/01/01 12:22:31;;;;;;;26.83;3.85;;;11.90;99.90;;;;;;4940671;28;20437;-71
2023/01/01 12:24:58;;;;;;;18.52;3.25;;;11.90;99.90;;;;;;4948039;29;20038;-73
2023/01/01 12:27:38;;;;;;;30.80;3.95;;;11.90;99.90;;;;;;4942367;29;20042;-75
2023/01/01 12:30:17;;;;;;;23.80;4.25;;;11.90;99.90;;;;;;4943779;29;20483;-73
2023/01/01 12:32:46;;;;;;;26.77;4.95;;;11.90;99.90;;;;;;4947195;28;20031;-68
2023/01/01 12:35:35;;;;;;;27.20;3.10;;;11.90;99.90;;;;;;4946764;29;20040;-72
2023/01/01 12:38:19;;;;;;;23.50;3.40;;;12.00;99.90;;;;;;4946421;29;20114;-70
2023/01/01 12:41:21;;;;;;;23.15;4.22;;;12.00;99.90;;;;;;4943616;29;20032;-70
2023/01/01 12:43:54;;;;;;;29.20;4.23;;;12.00;99.90;;;;;;4895156;29;20079;-70
2023/01/01 12:46:23;;;;;;;24.38;4.97;;;12.00;99.90;;;;;;4902399;29;20398;-69
2023/01/01 12:49:00;;;;;;;23.98;4.18;;;12.00;99.90;;;;;;4912495;29;20044;-70
2023/01/01 12:52:01;;;;;;;22.77;3.33;;;12.00;99.90;;;;;;4917230;29;20043;-71
2023/01/01 12:54:38;;;;;;;18.77;4.40;;;11.90;99.90;;;;;;4915814;29;20100;-73
2023/01/01 12:57:18;;;;;;;22.98;3.30;;;12.00;99.90;;;;;;4913212;29;20040;-68
2023/01/01 12:59:49;;;;;;;20.10;3.05;;;12.00;99.90;;;;;;4914344;29;20035;-70
2023/01/01 13:02:32;;;;;;;20.75;3.40;;;12.00;99.90;;;;;;4912692;29;20477;-69